createdAt,value
2022-12-14T00:01:59.899Z,26.57
2022-12-14T00:06:54.561Z,25.77
2022-12-14T00:11:47.855Z,24.57
2022-12-14T00:16:41.175Z,23.80
2022-12-14T00:21:34.544Z,28.77
2022-12-14T00:26:32.206Z,26.17
2022-12-14T00:31:26.837Z,30.07
2022-12-14T00:36:20.504Z,27.03
2022-12-14T00:41:14.049Z,23.90
2022-12-14T00:46:09.330Z,26.67
2022-12-14T00:51:02.933Z,26.33
2022-12-14T00:55:56.219Z,27.57
2022-12-14T01:01:00.443Z,25.73
2022-12-14T01:05:55.092Z,27.90
2022-12-14T01:10:48.430Z,28.13
2022-12-14T01:15:41.913Z,27.33
2022-12-14T01:20:35.214Z,26.03
2022-12-14T01:25:30.019Z,25.40
2022-12-14T01:30:23.351Z,23.93
2022-12-14T01:35:17.344Z,29.23
2022-12-14T01:40:11.564Z,26.23
2022-12-14T01:45:17.761Z,26.57
2022-12-14T01:50:24.186Z,25.10
2022-12-14T01:55:22.691Z,27.63
2022-12-14T02:00:18.217Z,28.30
2022-12-14T02:05:15.242Z,29.73
2022-12-14T02:10:10.983Z,27.50
2022-12-14T02:15:05.216Z,25.20
2022-12-14T02:20:00.318Z,29.80
2022-12-14T02:25:16.610Z,26.03
2022-12-14T02:30:16.045Z,26.20
2022-12-14T02:35:23.799Z,30.03
2022-12-14T02:40:29.554Z,31.40
2022-12-14T02:45:35.696Z,30.50
2022-12-14T02:50:40.006Z,26.10
2022-12-14T02:55:40.084Z,26.77
2022-12-14T03:00:38.576Z,26.93
2022-12-14T03:05:31.901Z,29.20
2022-12-14T03:10:38.654Z,28.63
2022-12-14T03:15:37.792Z,31.33
2022-12-14T03:20:36.651Z,29.10
2022-12-14T03:25:36.418Z,26.30
2022-12-14T03:30:58.706Z,30.13
2022-12-14T03:35:57.819Z,28.80
2022-12-14T03:41:04.858Z,31.50
2022-12-14T03:46:09.562Z,31.20
2022-12-14T03:51:19.229Z,33.20
2022-12-14T03:56:22.340Z,33.33
2022-12-14T04:01:28.579Z,31.13
2022-12-14T04:06:36.085Z,30.63
2022-12-14T04:11:53.918Z,34.83
2022-12-14T04:17:09.818Z,40.30
2022-12-14T04:22:12.646Z,30.47
2022-12-14T04:27:12.424Z,31.43
2022-12-14T04:32:14.758Z,36.50
2022-12-14T04:37:18.372Z,33.00
2022-12-14T04:42:16.092Z,36.57
2022-12-14T04:47:15.095Z,35.17
2022-12-14T04:52:17.182Z,34.00
2022-12-14T04:57:20.696Z,37.80
2022-12-14T05:02:29.916Z,34.87
2022-12-14T05:07:38.788Z,35.90
2022-12-14T05:12:41.527Z,31.93
2022-12-14T05:17:37.494Z,40.53
2022-12-14T05:22:32.143Z,40.83
2022-12-14T05:27:25.452Z,37.20
2022-12-14T05:32:18.787Z,33.83
2022-12-14T05:37:17.966Z,31.40
2022-12-14T05:42:13.102Z,35.33
2022-12-14T05:47:06.589Z,32.57
2022-12-14T05:51:59.927Z,43.80
2022-12-14T05:56:53.261Z,38.20
2022-12-14T06:01:49.382Z,36.20
2022-12-14T06:06:43.809Z,39.10
2022-12-14T06:11:39.979Z,42.47
2022-12-14T06:16:33.263Z,38.53
2022-12-14T06:21:30.848Z,35.80
2022-12-14T06:26:25.089Z,39.30
2022-12-14T06:31:21.176Z,36.37
2022-12-14T06:36:23.939Z,41.10
2022-12-14T06:41:19.321Z,41.20
2022-12-14T06:46:16.007Z,37.93
2022-12-14T06:51:10.392Z,37.83
2022-12-14T06:56:08.756Z,42.30
2022-12-14T07:01:05.572Z,40.67
2022-12-14T07:05:59.461Z,40.73
2022-12-14T07:10:56.326Z,40.67
2022-12-14T07:15:57.306Z,40.17
2022-12-14T07:20:58.722Z,42.90
2022-12-14T07:25:52.391Z,44.80
2022-12-14T07:30:45.774Z,46.50
2022-12-14T07:35:39.261Z,38.27
2022-12-14T07:40:36.395Z,42.67
2022-12-14T07:45:29.668Z,40.13
2022-12-14T07:50:22.964Z,37.13
2022-12-14T07:55:16.582Z,38.23
2022-12-14T08:00:13.092Z,45.97
2022-12-14T08:05:12.283Z,45.73
2022-12-14T08:10:07.065Z,43.43
2022-12-14T08:15:00.335Z,38.73
2022-12-14T08:19:54.989Z,35.43
2022-12-14T08:24:49.397Z,42.43
2022-12-14T08:29:43.350Z,43.80
2022-12-14T08:34:36.739Z,47.83
2022-12-14T08:39:31.332Z,44.43
2022-12-14T08:44:24.636Z,49.23
2022-12-14T08:49:18.018Z,48.73
2022-12-14T08:54:11.437Z,43.90
2022-12-14T08:59:06.177Z,54.23
2022-12-14T09:04:05.206Z,51.80
2022-12-14T09:09:02.076Z,51.80
2022-12-14T09:13:56.556Z,50.00
2022-12-14T09:18:51.501Z,44.47
2022-12-14T09:23:45.060Z,46.50
2022-12-14T09:28:41.633Z,48.93
2022-12-14T09:33:35.371Z,47.73
2022-12-14T09:38:32.926Z,49.10
2022-12-14T09:43:42.080Z,58.67
2022-12-14T09:48:37.768Z,58.07
2022-12-14T09:53:32.846Z,58.67
2022-12-14T09:58:30.586Z,51.23
2022-12-14T10:03:54.090Z,51.40
2022-12-14T10:08:57.764Z,56.47
2022-12-14T10:14:09.443Z,47.67
2022-12-14T10:19:26.024Z,47.90
2022-12-14T10:24:27.136Z,42.60
2022-12-14T10:29:33.301Z,53.47
2022-12-14T10:34:33.061Z,47.63
2022-12-14T10:39:49.945Z,50.50
2022-12-14T10:45:23.511Z,53.13
2022-12-14T10:50:25.695Z,53.90
2022-12-14T10:55:29.113Z,52.73
2022-12-14T11:00:23.446Z,47.50
2022-12-14T11:05:36.056Z,53.07
2022-12-14T11:10:36.023Z,50.80
2022-12-14T11:15:34.599Z,50.33
2022-12-14T11:20:28.158Z,52.87
2022-12-14T11:25:40.046Z,50.40
2022-12-14T11:30:33.601Z,49.33
2022-12-14T11:35:26.968Z,51.13
2022-12-14T11:40:25.739Z,49.30
2022-12-14T11:45:34.128Z,50.37
2022-12-14T11:50:32.597Z,49.23
2022-12-14T11:55:36.742Z,52.87
2022-12-14T12:00:47.151Z,50.47
2022-12-14T12:05:44.666Z,53.27
2022-12-14T12:10:42.916Z,49.97
2022-12-14T12:15:41.841Z,55.87
2022-12-14T12:20:41.339Z,59.23
2022-12-14T12:25:37.888Z,60.20
2022-12-14T12:30:40.716Z,51.30
2022-12-14T12:35:44.217Z,47.10
2022-12-14T12:40:50.825Z,55.40
2022-12-14T12:45:50.823Z,54.03
2022-12-14T12:50:49.525Z,56.60
2022-12-14T12:55:51.003Z,57.50
2022-12-14T13:00:51.693Z,56.17
2022-12-14T13:05:48.093Z,57.80
2022-12-14T13:11:17.277Z,65.33
2022-12-14T13:16:17.939Z,52.33
2022-12-14T13:21:30.221Z,54.30
2022-12-14T13:27:04.548Z,54.33
2022-12-14T13:32:16.350Z,48.47
2022-12-14T13:37:48.903Z,49.43
2022-12-14T13:42:56.985Z,51.43
2022-12-14T13:47:56.458Z,54.53
2022-12-14T13:52:51.702Z,43.87
2022-12-14T13:57:45.175Z,53.77
2022-12-14T14:02:41.605Z,60.10
2022-12-14T14:07:53.603Z,56.20
2022-12-14T14:12:46.983Z,51.40
2022-12-14T14:17:44.638Z,54.83
2022-12-14T14:22:39.322Z,56.80
2022-12-14T14:27:39.710Z,69.17
2022-12-14T14:32:42.429Z,65.93
2022-12-14T14:37:42.041Z,54.93
2022-12-14T14:42:43.375Z,61.37
2022-12-14T14:47:39.439Z,66.17
2022-12-14T14:53:12.757Z,68.70
2022-12-14T14:58:22.804Z,68.80
2022-12-14T15:03:19.687Z,57.03
2022-12-14T15:08:23.792Z,62.30
2022-12-14T15:13:24.251Z,57.13
2022-12-14T15:18:22.753Z,59.37
2022-12-14T15:23:17.877Z,58.67
2022-12-14T15:28:28.129Z,53.53
2022-12-14T15:33:28.499Z,52.53
2022-12-14T15:38:29.008Z,65.03
2022-12-14T15:43:24.868Z,62.90
2022-12-14T15:48:25.849Z,57.37
2022-12-14T15:53:31.495Z,55.00
2022-12-14T15:58:33.452Z,55.50
2022-12-14T16:03:33.543Z,49.80
2022-12-14T16:08:33.248Z,51.00
2022-12-14T16:13:31.768Z,52.37
2022-12-14T16:18:26.543Z,65.33
2022-12-14T16:23:32.648Z,67.47
2022-12-14T16:28:31.097Z,141.43
2022-12-14T16:33:25.777Z,183.03
2022-12-14T16:38:19.552Z,100.03
2022-12-14T16:43:35.301Z,101.97
2022-12-14T16:48:28.946Z,84.70
2022-12-14T16:53:26.293Z,92.47
2022-12-14T16:58:19.690Z,105.67
2022-12-14T17:03:24.568Z,94.33
2022-12-14T17:08:18.883Z,86.70
2022-12-14T17:13:12.270Z,84.87
2022-12-14T17:18:08.275Z,76.07
2022-12-14T17:23:03.881Z,75.00
2022-12-14T17:27:57.602Z,71.17
2022-12-14T17:32:53.351Z,174.53
2022-12-14T17:37:46.757Z,83.17
2022-12-14T17:42:50.899Z,99.73
2022-12-14T17:47:47.006Z,91.20
2022-12-14T17:52:40.235Z,82.47
2022-12-14T17:57:33.587Z,101.23
2022-12-14T18:02:33.846Z,91.93
2022-12-14T18:07:27.719Z,98.87
2022-12-14T18:12:23.607Z,88.33
2022-12-14T18:17:17.516Z,72.50
2022-12-14T18:22:13.263Z,55.53
2022-12-14T18:27:07.554Z,66.97
2022-12-14T18:32:01.501Z,64.47
2022-12-14T18:36:55.189Z,63.27
2022-12-14T18:41:49.943Z,57.70
2022-12-14T18:46:43.409Z,68.23
2022-12-14T18:51:42.895Z,69.30
2022-12-14T18:56:53.416Z,56.63
2022-12-14T19:01:52.362Z,53.80
2022-12-14T19:06:46.215Z,66.53
2022-12-14T19:11:42.755Z,71.70
2022-12-14T19:16:36.313Z,165.50
2022-12-14T19:21:31.632Z,69.27
2022-12-14T19:26:25.216Z,67.10
2022-12-14T19:31:18.671Z,53.40
2022-12-14T19:36:14.730Z,68.97
2022-12-14T19:41:13.604Z,55.00
2022-12-14T19:46:08.749Z,59.80
2022-12-14T19:51:05.875Z,56.63
2022-12-14T19:55:59.373Z,45.60
2022-12-14T20:00:54.375Z,70.57
2022-12-14T20:05:56.667Z,251.83
2022-12-14T20:10:52.684Z,126.13
2022-12-14T20:15:50.791Z,142.30
2022-12-14T20:21:10.801Z,117.30
2022-12-14T20:32:13.323Z,50.17
2022-12-14T21:07:35.346Z,56.43
2022-12-14T21:12:28.786Z,65.43
2022-12-14T21:17:28.685Z,54.70
2022-12-14T23:11:16.262Z,77.43
2022-12-14T23:16:27.077Z,75.93
2022-12-14T23:21:39.142Z,72.43
2022-12-14T23:52:04.860Z,58.70
